createdAt,value
2018-09-15T00:00:55.087Z,55.00
2018-09-15T00:03:24.759Z,55.14
2018-09-15T00:05:54.289Z,55.61
2018-09-15T00:08:23.601Z,54.90
2018-09-15T00:10:52.652Z,55.18
2018-09-15T00:13:23.159Z,54.94
2018-09-15T00:15:52.606Z,55.26
2018-09-15T00:18:21.967Z,55.79
2018-09-15T00:20:51.257Z,56.71
2018-09-15T00:23:20.608Z,56.32
2018-09-15T00:25:49.699Z,56.75
2018-09-15T00:28:19.015Z,55.77
2018-09-15T00:30:48.045Z,56.79
2018-09-15T00:33:17.199Z,56.74
2018-09-15T00:35:46.582Z,56.77
2018-09-15T00:38:15.666Z,57.02
2018-09-15T00:40:44.939Z,56.56
2018-09-15T00:43:14.128Z,57.32
2018-09-15T00:45:43.387Z,56.98
2018-09-15T00:48:12.560Z,57.11
2018-09-15T00:50:41.863Z,57.44
2018-09-15T00:53:11.143Z,57.28
2018-09-15T00:55:40.669Z,57.50
2018-09-15T00:58:09.896Z,58.80
2018-09-15T01:00:39.163Z,57.38
2018-09-15T01:03:08.362Z,56.87
2018-09-15T01:05:37.759Z,56.78
2018-09-15T01:08:07.007Z,56.93
2018-09-15T01:10:36.193Z,57.03
2018-09-15T01:13:05.566Z,57.36
2018-09-15T01:15:34.851Z,58.10
2018-09-15T01:18:03.939Z,57.72
2018-09-15T01:20:33.147Z,56.95
2018-09-15T01:23:02.167Z,57.42
2018-09-15T01:25:31.048Z,57.95
2018-09-15T01:28:00.229Z,58.01
2018-09-15T01:30:29.253Z,58.29
2018-09-15T01:32:58.482Z,57.51
2018-09-15T01:35:27.517Z,58.33
2018-09-15T01:37:56.752Z,59.06
2018-09-15T01:40:26.058Z,58.91
2018-09-15T01:42:54.936Z,59.30
2018-09-15T01:45:24.118Z,57.02
2018-09-15T01:47:53.356Z,57.44
2018-09-15T01:50:22.763Z,56.96
2018-09-15T01:52:52.087Z,57.25
2018-09-15T01:55:21.447Z,57.36
2018-09-15T01:57:50.571Z,56.48
2018-09-15T02:00:19.840Z,55.68
2018-09-15T02:02:49.103Z,55.51
2018-09-15T02:05:18.116Z,55.89
2018-09-15T02:07:47.482Z,55.90
2018-09-15T02:10:16.683Z,55.23
2018-09-15T02:12:46.039Z,55.35
2018-09-15T02:15:15.190Z,55.86
2018-09-15T02:17:44.335Z,55.76
2018-09-15T02:20:13.570Z,56.20
2018-09-15T02:22:43.063Z,56.26
2018-09-15T02:25:12.155Z,55.63
2018-09-15T02:27:41.559Z,55.33
2018-09-15T02:30:10.924Z,55.21
2018-09-15T02:32:40.112Z,55.87
2018-09-15T02:35:09.052Z,56.56
2018-09-15T02:37:38.257Z,56.32
2018-09-15T02:40:07.532Z,57.10
2018-09-15T02:42:36.655Z,56.96
2018-09-15T02:45:05.897Z,57.56
2018-09-15T02:47:34.891Z,57.26
2018-09-15T02:50:04.193Z,58.58
2018-09-15T02:52:33.260Z,58.67
2018-09-15T02:55:02.686Z,58.29
2018-09-15T02:57:31.919Z,57.16
2018-09-15T03:00:01.316Z,57.24
2018-09-15T03:02:30.631Z,57.63
2018-09-15T03:04:59.774Z,57.77
2018-09-15T03:07:28.977Z,58.13
2018-09-15T03:09:57.948Z,58.08
2018-09-15T03:12:27.317Z,56.88
2018-09-15T03:14:56.511Z,57.54
2018-09-15T03:17:25.760Z,58.23
2018-09-15T03:19:55.109Z,57.92
2018-09-15T03:22:24.515Z,59.14
2018-09-15T03:24:54.010Z,59.31
2018-09-15T03:27:23.195Z,59.54
2018-09-15T03:29:52.403Z,60.24
2018-09-15T03:32:21.908Z,60.85
2018-09-15T03:34:50.959Z,61.20
2018-09-15T03:37:20.104Z,61.30
2018-09-15T03:39:49.532Z,61.85
2018-09-15T03:42:18.847Z,61.38
2018-09-15T03:44:48.190Z,61.20
2018-09-15T03:47:17.447Z,60.74
2018-09-15T03:49:46.426Z,61.77
2018-09-15T03:52:15.717Z,60.92
2018-09-15T03:54:44.935Z,61.92
2018-09-15T03:57:13.991Z,61.28
2018-09-15T03:59:43.083Z,61.40
2018-09-15T04:02:12.384Z,62.45
2018-09-15T04:04:41.776Z,61.99
2018-09-15T04:07:10.735Z,62.26
2018-09-15T04:09:39.866Z,62.52
2018-09-15T04:12:09.148Z,62.89
2018-09-15T04:14:38.344Z,62.20
2018-09-15T04:17:07.754Z,62.42
2018-09-15T04:19:37.048Z,61.92
2018-09-15T04:22:06.195Z,62.41
2018-09-15T04:24:35.439Z,63.17
2018-09-15T04:27:04.845Z,62.27
2018-09-15T04:29:34.217Z,61.88
2018-09-15T04:32:03.455Z,63.37
2018-09-15T04:34:32.690Z,62.86
2018-09-15T04:37:02.109Z,62.75
2018-09-15T04:39:31.248Z,62.73
2018-09-15T04:42:00.592Z,62.93
2018-09-15T04:44:30.047Z,61.45
2018-09-15T04:46:58.940Z,62.35
2018-09-15T04:49:28.229Z,61.57
2018-09-15T04:51:57.500Z,62.16
2018-09-15T04:54:26.683Z,62.12
2018-09-15T04:56:56.136Z,61.93
2018-09-15T04:59:25.460Z,61.00
2018-09-15T05:01:54.532Z,60.72
2018-09-15T05:04:23.825Z,59.84
2018-09-15T05:06:52.857Z,59.88
2018-09-15T05:09:21.905Z,59.99
2018-09-15T05:11:51.110Z,60.68
2018-09-15T05:14:20.500Z,61.04
2018-09-15T05:16:49.854Z,60.34
2018-09-15T05:19:19.036Z,61.07
2018-09-15T05:21:48.160Z,60.42
2018-09-15T05:24:17.388Z,59.30
2018-09-15T05:26:46.687Z,58.39
2018-09-15T05:29:15.999Z,58.37
2018-09-15T05:31:45.343Z,58.02
2018-09-15T05:34:14.463Z,57.10
2018-09-15T05:36:43.739Z,57.27
2018-09-15T05:39:13.950Z,56.69
2018-09-15T05:41:43.567Z,56.99
2018-09-15T05:44:12.704Z,57.59
2018-09-15T05:46:41.826Z,57.28
2018-09-15T05:49:11.164Z,56.91
2018-09-15T05:51:40.520Z,57.59
2018-09-15T05:54:09.702Z,57.08
2018-09-15T05:56:38.988Z,57.50
2018-09-15T05:59:08.399Z,57.17
2018-09-15T06:01:37.776Z,56.62
2018-09-15T06:04:06.699Z,56.48
2018-09-15T06:06:35.738Z,56.50
2018-09-15T06:09:06.627Z,56.77
2018-09-15T06:11:35.858Z,56.19
2018-09-15T06:14:04.876Z,56.69
2018-09-15T06:16:34.040Z,55.64
2018-09-15T06:19:03.433Z,56.25
2018-09-15T06:21:32.913Z,56.13
2018-09-15T06:24:02.127Z,56.11
2018-09-15T06:26:32.180Z,56.14
2018-09-15T06:29:01.458Z,55.62
2018-09-15T06:31:31.039Z,55.82
2018-09-15T06:34:00.450Z,54.72
2018-09-15T06:36:29.834Z,54.24
2018-09-15T06:38:59.074Z,53.52
2018-09-15T06:41:28.448Z,52.68
2018-09-15T06:43:57.775Z,52.46
2018-09-15T06:46:26.593Z,52.86
2018-09-15T06:48:55.804Z,52.55
2018-09-15T06:51:25.283Z,51.75
2018-09-15T06:53:54.728Z,51.86
2018-09-15T06:56:23.768Z,51.11
2018-09-15T06:58:53.117Z,50.76
2018-09-15T07:01:22.518Z,50.64
2018-09-15T07:03:51.528Z,49.49
2018-09-15T07:06:20.903Z,50.18
2018-09-15T07:08:50.129Z,49.16
2018-09-15T07:11:19.361Z,49.75
2018-09-15T07:13:48.991Z,49.83
2018-09-15T07:16:18.264Z,48.89
2018-09-15T07:18:47.589Z,48.65
2018-09-15T07:21:16.687Z,47.21
2018-09-15T07:23:46.171Z,47.66
2018-09-15T07:26:15.281Z,47.33
2018-09-15T07:28:44.560Z,44.17
2018-09-15T07:31:13.947Z,45.21
2018-09-15T07:33:43.359Z,45.79
2018-09-15T07:36:12.695Z,43.83
2018-09-15T07:38:42.082Z,44.05
2018-09-15T07:41:11.212Z,43.39
2018-09-15T07:43:40.269Z,39.93
2018-09-15T07:46:09.407Z,40.41
2018-09-15T07:48:38.747Z,36.19
2018-09-15T07:51:08.185Z,34.94
2018-09-15T07:53:37.759Z,33.53
2018-09-15T07:56:07.152Z,33.56
2018-09-15T07:58:36.499Z,32.87
2018-09-15T08:01:05.855Z,32.70
2018-09-15T08:03:35.097Z,31.50
2018-09-15T08:06:04.367Z,32.45
2018-09-15T08:08:33.552Z,33.33
2018-09-15T08:11:02.710Z,33.14
2018-09-15T08:13:32.090Z,32.21
2018-09-15T08:16:01.400Z,32.36
2018-09-15T08:18:30.693Z,31.31
2018-09-15T08:20:59.895Z,30.69
2018-09-15T08:23:28.850Z,32.94
2018-09-15T08:25:58.903Z,31.82
2018-09-15T08:28:27.980Z,32.44
2018-09-15T08:30:57.062Z,31.42
2018-09-15T08:33:26.431Z,31.35
2018-09-15T08:35:55.899Z,31.16
2018-09-15T08:38:25.240Z,30.91
2018-09-15T08:40:54.550Z,29.53
2018-09-15T08:43:23.851Z,28.91
2018-09-15T08:45:54.277Z,30.69
2018-09-15T08:48:23.825Z,30.26
2018-09-15T08:50:52.911Z,30.97
2018-09-15T08:53:22.255Z,31.14
2018-09-15T08:55:51.536Z,31.22
2018-09-15T08:58:20.800Z,31.83
2018-09-15T09:00:50.255Z,32.98
2018-09-15T09:03:19.435Z,32.78
2018-09-15T09:05:48.707Z,32.75
2018-09-15T09:08:18.162Z,31.69
2018-09-15T09:10:47.391Z,31.41
2018-09-15T09:13:16.802Z,32.04
2018-09-15T09:15:45.798Z,31.74
2018-09-15T09:18:15.201Z,31.07
2018-09-15T09:20:44.699Z,32.24
2018-09-15T09:23:13.935Z,31.23
2018-09-15T09:25:43.418Z,30.43
2018-09-15T09:28:12.607Z,31.03
2018-09-15T09:30:41.955Z,31.48
2018-09-15T09:33:11.361Z,30.20
2018-09-15T09:35:40.678Z,30.86
2018-09-15T09:38:09.696Z,30.40
2018-09-15T09:40:38.756Z,29.50
2018-09-15T09:43:08.193Z,28.03
2018-09-15T09:45:38.181Z,28.48
2018-09-15T09:48:07.350Z,26.90
2018-09-15T09:50:36.706Z,26.65
2018-09-15T09:53:06.009Z,26.15
2018-09-15T09:55:35.391Z,25.65
2018-09-15T09:58:04.795Z,25.48
2018-09-15T10:00:38.699Z,25.09
2018-09-15T10:03:08.021Z,23.58
2018-09-15T10:05:36.863Z,23.73
2018-09-15T10:08:06.260Z,20.69
2018-09-15T10:10:35.384Z,18.98
2018-09-15T10:13:04.710Z,18.57
2018-09-15T10:15:33.989Z,17.58
2018-09-15T10:18:03.172Z,15.92
2018-09-15T10:20:32.184Z,14.60
2018-09-15T10:23:01.381Z,14.42
2018-09-15T10:25:30.418Z,13.26
2018-09-15T10:27:59.480Z,12.70
2018-09-15T10:30:28.587Z,11.94
2018-09-15T10:32:57.912Z,11.68
2018-09-15T10:35:27.216Z,10.44
2018-09-15T10:37:56.556Z,9.83
2018-09-15T10:40:26.115Z,10.61
2018-09-15T10:42:55.210Z,10.03
2018-09-15T10:45:24.496Z,10.15
2018-09-15T10:47:53.663Z,9.07
2018-09-15T10:50:22.995Z,9.20
2018-09-15T10:52:52.195Z,9.22
2018-09-15T10:55:21.447Z,9.34
2018-09-15T10:57:50.854Z,9.00
2018-09-15T11:00:20.226Z,8.51
2018-09-15T11:02:49.486Z,9.06
2018-09-15T11:05:18.731Z,8.82
2018-09-15T11:07:47.991Z,8.78
2018-09-15T11:10:16.929Z,7.70
2018-09-15T11:12:46.308Z,8.08
2018-09-15T11:15:15.520Z,7.84
2018-09-15T11:17:44.821Z,8.67
2018-09-15T11:20:14.180Z,7.92
2018-09-15T11:22:43.674Z,8.55
2018-09-15T11:25:12.754Z,8.28
2018-09-15T11:27:41.560Z,8.62
2018-09-15T11:30:10.809Z,8.44
2018-09-15T11:32:39.680Z,8.20
2018-09-15T11:35:08.987Z,9.13
2018-09-15T11:37:38.302Z,8.96
2018-09-15T11:40:08.109Z,9.20
2018-09-15T11:42:37.520Z,9.04
2018-09-15T11:45:06.863Z,8.39
2018-09-15T11:47:36.073Z,9.37
2018-09-15T11:50:05.563Z,10.09
2018-09-15T11:52:34.903Z,11.71
2018-09-15T11:55:04.116Z,12.55
2018-09-15T11:57:33.472Z,12.73
2018-09-15T12:00:02.869Z,12.25
2018-09-15T12:02:33.428Z,10.55
2018-09-15T12:05:02.687Z,10.43
2018-09-15T12:07:31.679Z,10.27
2018-09-15T12:10:01.024Z,10.39
2018-09-15T12:12:30.181Z,10.20
2018-09-15T12:14:59.412Z,10.66
2018-09-15T12:17:28.492Z,10.14
2018-09-15T12:19:57.818Z,9.83
2018-09-15T12:22:27.216Z,9.90
2018-09-15T12:24:56.907Z,9.32
2018-09-15T12:27:27.177Z,9.60
2018-09-15T12:29:56.640Z,9.28
2018-09-15T12:32:25.954Z,8.38
2018-09-15T12:34:55.236Z,8.71
2018-09-15T12:37:24.447Z,8.48
2018-09-15T12:39:53.308Z,8.77
2018-09-15T12:42:22.687Z,8.56
2018-09-15T12:44:52.079Z,9.86
2018-09-15T12:47:21.096Z,9.98
2018-09-15T12:49:50.228Z,9.56
2018-09-15T12:52:19.737Z,10.12
2018-09-15T12:54:48.971Z,10.06
2018-09-15T12:57:18.168Z,9.56
2018-09-15T12:59:47.571Z,9.96
2018-09-15T13:02:16.925Z,9.72
2018-09-15T13:04:45.798Z,10.33
2018-09-15T13:07:15.032Z,11.23
2018-09-15T13:09:44.471Z,10.85
2018-09-15T13:12:13.755Z,10.77
2018-09-15T13:14:42.904Z,10.63
2018-09-15T13:17:12.231Z,11.10
2018-09-15T13:19:41.319Z,10.63
2018-09-15T13:22:10.279Z,10.72
2018-09-15T13:24:39.301Z,11.11
2018-09-15T13:27:08.414Z,11.09
2018-09-15T13:29:37.554Z,11.62
2018-09-15T13:32:06.739Z,12.99
2018-09-15T13:34:36.029Z,14.02
2018-09-15T13:37:05.272Z,14.72
2018-09-15T13:39:34.566Z,16.25
2018-09-15T13:42:03.838Z,16.29
2018-09-15T13:44:33.221Z,16.61
2018-09-15T13:47:02.348Z,18.04
2018-09-15T13:49:31.562Z,18.02
2018-09-15T13:52:00.797Z,18.44
2018-09-15T13:54:30.003Z,18.61
2018-09-15T13:56:59.417Z,19.35
2018-09-15T13:59:28.739Z,19.36
2018-09-15T14:01:57.690Z,19.50
2018-09-15T14:04:26.927Z,19.72
2018-09-15T14:06:56.340Z,20.27
2018-09-15T14:09:25.740Z,20.81
2018-09-15T14:11:55.095Z,21.18
2018-09-15T14:14:24.441Z,21.16
2018-09-15T14:16:53.851Z,21.21
2018-09-15T14:19:23.076Z,20.83
2018-09-15T14:21:52.407Z,21.39
2018-09-15T14:24:21.807Z,21.35
2018-09-15T14:26:50.866Z,21.08
2018-09-15T14:29:20.229Z,21.00
2018-09-15T14:31:49.371Z,20.94
2018-09-15T14:34:18.580Z,21.94
2018-09-15T14:36:47.580Z,20.85
2018-09-15T14:39:16.535Z,21.71
2018-09-15T14:41:45.596Z,21.72
2018-09-15T14:44:14.740Z,21.94
2018-09-15T14:46:44.012Z,21.08
2018-09-15T14:49:13.297Z,21.75
2018-09-15T14:51:42.755Z,22.16
2018-09-15T14:54:11.987Z,21.83
2018-09-15T14:56:41.299Z,22.01
2018-09-15T14:59:10.498Z,22.13
2018-09-15T15:01:39.784Z,21.20
2018-09-15T15:04:09.120Z,22.52
2018-09-15T15:06:38.438Z,22.68
2018-09-15T15:09:09.078Z,22.30
2018-09-15T15:11:38.312Z,22.78
2018-09-15T15:14:08.091Z,22.23
2018-09-15T15:16:37.380Z,23.32
2018-09-15T15:19:07.034Z,23.06
2018-09-15T15:21:36.387Z,23.88
2018-09-15T15:24:05.684Z,24.01
2018-09-15T15:26:35.109Z,25.30
2018-09-15T15:29:03.955Z,25.26
2018-09-15T15:31:33.275Z,26.19
2018-09-15T15:34:02.511Z,26.50
2018-09-15T15:36:31.569Z,26.38
2018-09-15T15:39:00.903Z,27.18
2018-09-15T15:41:30.161Z,27.48
2018-09-15T15:43:59.401Z,26.85
2018-09-15T15:46:28.655Z,28.08
2018-09-15T15:48:57.899Z,28.41
2018-09-15T15:51:27.281Z,28.75
2018-09-15T15:53:56.707Z,28.27
2018-09-15T15:56:26.012Z,29.64
2018-09-15T15:58:55.052Z,29.46
2018-09-15T16:01:24.495Z,29.35
2018-09-15T16:03:53.691Z,29.86
2018-09-15T16:06:23.207Z,30.14
2018-09-15T16:08:52.819Z,31.81
2018-09-15T16:11:22.528Z,30.38
2018-09-15T16:13:52.220Z,31.84
2018-09-15T16:16:21.677Z,31.20
2018-09-15T16:18:50.949Z,32.27
2018-09-15T16:21:19.928Z,32.18
2018-09-15T16:23:49.188Z,32.45
2018-09-15T16:26:18.467Z,33.30
2018-09-15T16:28:47.619Z,33.56
2018-09-15T16:31:17.015Z,33.04
2018-09-15T16:33:46.370Z,33.43
2018-09-15T16:36:15.718Z,34.32
2018-09-15T16:38:45.269Z,33.71
2018-09-15T16:41:14.623Z,33.32
2018-09-15T16:43:43.819Z,33.01
2018-09-15T16:46:13.020Z,34.04
2018-09-15T16:48:42.048Z,34.80
2018-09-15T16:51:11.252Z,33.96
2018-09-15T16:53:40.539Z,34.68
2018-09-15T16:56:09.791Z,34.09
2018-09-15T16:58:38.935Z,35.23
2018-09-15T17:01:08.144Z,34.23
2018-09-15T17:03:37.599Z,34.46
2018-09-15T17:06:06.955Z,34.09
2018-09-15T17:08:36.296Z,34.64
2018-09-15T17:11:05.744Z,35.36
2018-09-15T17:13:35.007Z,34.92
2018-09-15T17:16:03.887Z,34.49
2018-09-15T17:18:33.104Z,35.10
2018-09-15T17:21:02.435Z,35.46
2018-09-15T17:23:32.227Z,35.96
2018-09-15T17:26:01.163Z,36.37
2018-09-15T17:28:30.574Z,35.98
2018-09-15T17:31:00.138Z,37.76
2018-09-15T17:33:29.548Z,37.47
2018-09-15T17:35:58.515Z,38.38
2018-09-15T17:38:27.730Z,37.69
2018-09-15T17:40:57.182Z,38.71
2018-09-15T17:43:26.531Z,38.26
2018-09-15T17:45:56.372Z,36.36
2018-09-15T17:48:25.739Z,38.20
2018-09-15T17:50:54.984Z,36.95
2018-09-15T17:53:24.436Z,36.23
2018-09-15T17:55:53.683Z,36.79
2018-09-15T17:58:22.867Z,37.05
2018-09-15T18:00:52.241Z,35.41
2018-09-15T18:03:22.350Z,36.69
2018-09-15T18:05:52.779Z,37.01
2018-09-15T18:08:22.023Z,36.08
2018-09-15T18:10:51.416Z,37.00
2018-09-15T18:13:20.671Z,36.05
2018-09-15T18:15:50.931Z,36.04
2018-09-15T18:18:20.520Z,36.37
2018-09-15T18:20:49.699Z,37.13
2018-09-15T18:23:19.114Z,37.29
2018-09-15T18:25:48.271Z,37.71
2018-09-15T18:28:17.656Z,36.83
2018-09-15T18:30:46.875Z,38.47
2018-09-15T18:33:16.091Z,37.26
2018-09-15T18:35:45.468Z,36.84
2018-09-15T18:38:14.691Z,36.95
2018-09-15T18:40:44.137Z,37.46
2018-09-15T18:43:14.780Z,37.33
2018-09-15T18:45:45.898Z,36.74
2018-09-15T18:48:15.831Z,36.91
2018-09-15T18:50:44.958Z,38.07
2018-09-15T18:53:14.183Z,37.20
2018-09-15T18:55:43.379Z,37.38
2018-09-15T18:58:12.616Z,37.43
2018-09-15T19:00:42.084Z,37.04
2018-09-15T19:03:17.659Z,37.99
2018-09-15T19:05:47.586Z,37.45
2018-09-15T19:08:16.766Z,38.14
2018-09-15T19:10:45.819Z,38.12
2018-09-15T19:13:15.264Z,37.63
2018-09-15T19:15:44.662Z,37.61
2018-09-15T19:18:14.270Z,38.03
2018-09-15T19:20:43.358Z,37.62
2018-09-15T19:23:12.740Z,37.96
2018-09-15T19:25:42.022Z,38.45
2018-09-15T19:28:11.175Z,37.91
2018-09-15T19:30:40.573Z,40.25
2018-09-15T19:33:09.780Z,40.14
2018-09-15T19:35:39.173Z,38.97
2018-09-15T19:38:08.627Z,38.56
2018-09-15T19:40:38.096Z,37.96
2018-09-15T19:43:07.571Z,38.90
2018-09-15T19:45:36.586Z,38.46
2018-09-15T19:48:05.919Z,38.40
2018-09-15T19:50:35.213Z,37.70
2018-09-15T19:53:04.558Z,37.86
2018-09-15T19:55:33.816Z,37.94
2018-09-15T19:58:02.965Z,38.88
2018-09-15T20:00:32.264Z,38.37
2018-09-15T20:03:01.711Z,38.71
2018-09-15T20:05:30.809Z,38.60
2018-09-15T20:08:00.049Z,39.10
2018-09-15T20:10:29.156Z,38.64
2018-09-15T20:12:58.618Z,39.74
2018-09-15T20:15:30.011Z,39.72
2018-09-15T20:17:58.167Z,39.64
2018-09-15T20:20:25.955Z,40.40
2018-09-15T20:22:55.956Z,40.87
2018-09-15T20:25:25.263Z,40.01
2018-09-15T20:27:54.555Z,41.12
2018-09-15T20:30:23.848Z,40.99
2018-09-15T20:32:52.935Z,40.49
2018-09-15T20:35:22.089Z,41.11
2018-09-15T20:37:51.716Z,41.19
2018-09-15T20:40:20.787Z,41.55
2018-09-15T20:42:49.863Z,40.80
2018-09-15T20:45:19.088Z,40.88
2018-09-15T20:47:48.363Z,40.86
2018-09-15T20:50:17.586Z,41.61
2018-09-15T20:52:46.771Z,41.37
2018-09-15T20:55:15.722Z,41.56
2018-09-15T20:57:45.221Z,42.23
2018-09-15T21:00:14.248Z,41.43
2018-09-15T21:02:43.514Z,41.45
2018-09-15T21:05:12.772Z,41.05
2018-09-15T21:07:42.103Z,42.03
2018-09-15T21:10:11.567Z,41.44
2018-09-15T21:12:40.796Z,41.74
2018-09-15T21:15:09.943Z,41.83
2018-09-15T21:17:38.879Z,42.59
2018-09-15T21:20:08.109Z,42.53
2018-09-15T21:22:37.391Z,41.90
2018-09-15T21:25:06.726Z,42.74
2018-09-15T21:27:35.939Z,42.70
2018-09-15T21:30:05.595Z,42.52
2018-09-15T21:32:35.044Z,42.08
2018-09-15T21:35:04.404Z,42.04
2018-09-15T21:37:33.660Z,42.85
2018-09-15T21:40:03.083Z,42.61
2018-09-15T21:42:32.290Z,42.08
2018-09-15T21:45:01.539Z,42.04
2018-09-15T21:47:30.536Z,41.88
2018-09-15T21:49:59.664Z,42.53
2018-09-15T21:52:28.939Z,42.59
2018-09-15T21:54:58.073Z,42.81
2018-09-15T21:57:27.010Z,42.58
2018-09-15T21:59:56.367Z,42.83
2018-09-15T22:02:25.547Z,42.34
2018-09-15T22:04:54.703Z,43.17
2018-09-15T22:07:23.850Z,43.43
2018-09-15T22:09:53.050Z,42.96
2018-09-15T22:12:22.115Z,43.42
2018-09-15T22:14:51.121Z,43.92
2018-09-15T22:17:20.479Z,44.03
2018-09-15T22:19:49.796Z,44.32
2018-09-15T22:22:19.544Z,43.64
2018-09-15T22:24:48.506Z,44.67
2018-09-15T22:27:17.782Z,44.85
2018-09-15T22:29:47.184Z,44.23
2018-09-15T22:32:16.523Z,44.09
2018-09-15T22:34:45.756Z,44.27
2018-09-15T22:37:14.967Z,44.83
2018-09-15T22:39:44.069Z,44.63
2018-09-15T22:42:13.515Z,44.47
2018-09-15T22:44:42.866Z,44.90
2018-09-15T22:47:12.072Z,44.35
2018-09-15T22:49:41.367Z,45.01
2018-09-15T22:52:10.286Z,44.30
2018-09-15T22:54:39.624Z,44.40
2018-09-15T22:57:09.061Z,44.75
2018-09-15T22:59:38.395Z,44.62
2018-09-15T23:02:07.508Z,45.39
2018-09-15T23:04:36.790Z,44.92
2018-09-15T23:07:06.044Z,44.62
2018-09-15T23:09:35.044Z,45.28
2018-09-15T23:12:04.195Z,44.85
2018-09-15T23:14:33.643Z,45.07
2018-09-15T23:17:02.949Z,45.80
2018-09-15T23:19:32.037Z,45.81
2018-09-15T23:22:01.384Z,45.72
2018-09-15T23:24:30.739Z,45.81
2018-09-15T23:27:00.077Z,45.58
2018-09-15T23:29:29.592Z,44.86
2018-09-15T23:31:58.663Z,45.52
2018-09-15T23:34:28.035Z,45.15
2018-09-15T23:36:57.271Z,45.39
2018-09-15T23:39:26.540Z,45.47
2018-09-15T23:41:58.612Z,45.31
2018-09-15T23:44:28.102Z,45.57
2018-09-15T23:46:57.460Z,44.88
2018-09-15T23:49:26.907Z,45.30
2018-09-15T23:51:56.268Z,45.85
2018-09-15T23:54:25.264Z,45.16
2018-09-15T23:56:54.406Z,45.17
2018-09-15T23:59:23.355Z,45.64
